Time;durP1;ratioP1;P1;durP2;ratioP2;P2;SDS_P1;SDS_P2;PMS_P1;PMS_P2;Temp;Humidity;BMP_temperature;BMP_pressure;BME280_temperature;BME280_humidity;BME280_pressure;Samples;Min_cycle;Max_cycle;Signal;HPM_P1;HPM_P2
2022/04/12 00:01:33;;;;;;;25.77;12.23;;;;;;;2.64;63.51;100940.78;5031576;28;20469;-60
2022/04/12 00:04:00;;;;;;;21.50;10.82;;;;;;;2.63;63.90;100940.75;5019059;28;20030;-58
2022/04/12 00:06:26;;;;;;;25.92;12.45;;;;;;;2.63;63.89;100949.44;5030514;28;20499;-58
2022/04/12 00:08:51;;;;;;;22.23;11.85;;;;;;;2.60;63.94;100941.56;5023248;28;20038;-58
2022/04/12 00:11:16;;;;;;;23.40;11.45;;;;;;;2.59;64.21;100949.31;5024010;28;20480;-58
2022/04/12 00:13:42;;;;;;;24.38;10.93;;;;;;;2.68;64.11;100944.31;5030239;28;20046;-58
2022/04/12 00:16:07;;;;;;;24.02;11.25;;;;;;;2.81;63.84;100948.00;5021137;28;20037;-58
2022/04/12 00:21:16;;;;;;;22.08;9.88;;;;;;;3.06;63.39;100945.00;5016653;28;20051;-58
2022/04/12 00:23:42;;;;;;;22.27;9.73;;;;;;;3.12;63.19;100950.31;5024238;28;20034;-58
2022/04/12 00:26:07;;;;;;;21.52;9.80;;;;;;;3.24;63.16;100948.81;5030589;28;20034;-58
2022/04/12 00:28:33;;;;;;;20.70;8.90;;;;;;;3.28;62.80;100945.41;5022395;28;20033;-58
2022/04/12 00:30:58;;;;;;;25.20;9.70;;;;;;;3.37;62.53;100948.16;5025852;28;20046;-58
2022/04/12 00:33:24;;;;;;;24.38;10.35;;;;;;;3.43;62.75;100953.44;5015884;28;20049;-58
2022/04/12 00:35:49;;;;;;;21.27;9.73;;;;;;;3.34;62.79;100956.75;5023362;28;20033;-58
2022/04/12 00:38:23;;;;;;;19.75;9.93;;;;;;;3.25;63.28;100950.53;5014147;28;20079;-59
2022/04/12 00:40:50;;;;;;;20.73;10.15;;;;;;;3.19;63.33;100951.28;5013890;28;20089;-57
2022/04/12 00:43:20;;;;;;;19.45;10.30;;;;;;;3.11;63.62;100953.78;5032313;28;20037;-58
2022/04/12 00:45:46;;;;;;;19.17;9.85;;;;;;;3.14;63.67;100953.81;5027042;28;20030;-58
2022/04/12 00:48:13;;;;;;;23.88;10.18;;;;;;;3.17;63.62;100953.88;5026926;28;20045;-58
2022/04/12 00:50:40;;;;;;;21.50;9.52;;;;;;;3.14;63.64;100953.81;5033753;28;20107;-58
2022/04/12 00:53:07;;;;;;;24.33;11.75;;;;;;;3.15;63.63;100954.69;5033901;28;20400;-58
2022/04/12 00:55:34;;;;;;;23.13;10.82;;;;;;;3.14;63.49;100950.34;5033780;28;20057;-58
2022/04/12 00:58:05;;;;;;;23.52;11.73;;;;;;;3.09;63.89;100960.66;5036504;28;20033;-58
2022/04/12 01:00:31;;;;;;;31.98;14.60;;;;;;;3.01;64.34;100949.25;5033697;28;20029;-58
2022/04/12 01:02:57;;;;;;;25.13;11.77;;;;;;;3.00;64.24;100954.44;5025129;28;20136;-58
2022/04/12 01:05:22;;;;;;;21.73;11.77;;;;;;;2.96;64.37;100958.69;5027714;28;20073;-58
2022/04/12 01:07:48;;;;;;;26.52;11.88;;;;;;;3.01;64.18;100956.19;5020296;28;20038;-58
2022/04/12 01:10:13;;;;;;;27.90;13.65;;;;;;;2.94;64.25;100961.25;5030977;28;20057;-56
2022/04/12 01:12:41;;;;;;;29.25;15.27;;;;;;;2.91;64.51;100965.50;5015482;28;20469;-58
2022/04/12 01:15:12;;;;;;;31.10;14.45;;;;;;;2.84;64.49;100958.47;5017555;28;20034;-58
2022/04/12 01:17:37;;;;;;;27.98;13.32;;;;;;;2.85;64.63;100962.81;5023695;28;20100;-58
2022/04/12 01:20:06;;;;;;;30.50;14.43;;;;;;;2.88;64.46;100961.13;5016589;28;20041;-58
2022/04/12 01:22:33;;;;;;;26.75;13.55;;;;;;;2.91;64.36;100968.09;5024246;28;20120;-58
2022/04/12 01:24:59;;;;;;;23.50;12.32;;;;;;;2.90;64.29;100961.16;5017465;28;20041;-58
2022/04/12 01:27:24;;;;;;;27.20;13.23;;;;;;;2.86;64.39;100957.63;5032461;28;20047;-58
2022/04/12 01:29:52;;;;;;;26.75;12.10;;;;;;;2.88;64.21;100965.47;5017293;28;20065;-58
2022/04/12 01:32:17;;;;;;;28.85;12.73;;;;;;;2.84;64.50;100958.47;5015601;28;20478;-58
2022/04/12 01:34:43;;;;;;;28.15;13.43;;;;;;;2.83;64.88;100964.47;5023258;28;20037;-58
2022/04/12 01:37:08;;;;;;;29.58;13.35;;;;;;;2.80;64.82;100965.31;5027270;28;20033;-58
2022/04/12 01:39:34;;;;;;;25.50;11.75;;;;;;;2.76;64.78;100965.22;5034302;28;20042;-58
2022/04/12 01:42:00;;;;;;;27.42;11.02;;;;;;;2.68;65.18;100965.94;5034044;28;20382;-58
2022/04/12 01:44:27;;;;;;;28.92;13.68;;;;;;;2.53;65.58;100968.22;5029796;28;20119;-58
2022/04/12 01:46:52;;;;;;;27.27;12.20;;;;;;;2.53;65.49;100978.59;5020798;28;20045;-58
2022/04/12 01:49:17;;;;;;;23.92;10.93;;;;;;;2.51;65.51;100980.28;5016025;28;20041;-59
2022/04/12 01:51:43;;;;;;;19.85;10.10;;;;;;;2.46;65.97;100980.19;5030412;28;20044;-58
2022/04/12 01:54:08;;;;;;;25.73;10.98;;;;;;;2.52;65.86;100987.25;5029736;28;20034;-58
2022/04/12 01:56:34;;;;;;;26.20;10.23;;;;;;;2.51;65.88;100987.19;5027645;28;20103;-59
2022/04/12 01:59:01;;;;;;;22.27;10.05;;;;;;;2.41;66.28;100978.34;5026284;28;20040;-58
2022/04/12 02:01:26;;;;;;;22.63;9.50;;;;;;;2.39;65.86;100988.69;5024478;28;20069;-58
2022/04/12 02:03:53;;;;;;;19.90;8.98;;;;;;;2.36;66.44;100986.03;5031494;28;20056;-58
2022/04/12 02:06:18;;;;;;;18.05;9.35;;;;;;;2.30;66.38;100987.63;5028512;28;20092;-59
2022/04/12 02:08:44;;;;;;;21.42;8.65;;;;;;;2.28;66.23;100989.31;5021456;28;20029;-59
2022/04/12 02:11:10;;;;;;;18.15;8.30;;;;;;;2.21;66.75;100991.75;5015233;28;20101;-58
2022/04/12 02:13:35;;;;;;;19.63;8.82;;;;;;;2.17;67.00;100994.25;5019669;28;20474;-59
2022/04/12 02:16:01;;;;;;;21.38;7.68;;;;;;;2.16;67.09;100992.53;5016768;28;20457;-58
2022/04/12 02:18:26;;;;;;;17.23;7.63;;;;;;;2.19;66.75;100992.56;5016191;28;20048;-58
2022/04/12 02:20:52;;;;;;;17.83;6.97;;;;;;;2.18;66.72;100989.09;5015575;28;20037;-58
2022/04/12 02:23:17;;;;;;;16.23;7.68;;;;;;;2.17;66.70;100995.13;5029470;28;20057;-58
2022/04/12 02:25:42;;;;;;;16.98;7.80;;;;;;;2.15;66.67;100995.94;5020095;28;20119;-59
2022/04/12 02:28:08;;;;;;;17.13;7.78;;;;;;;2.08;67.47;101000.13;5021993;28;20036;-58
2022/04/12 02:30:33;;;;;;;16.95;6.78;;;;;;;2.13;67.07;101008.00;5018435;28;20512;-59
2022/04/12 02:32:59;;;;;;;16.52;7.25;;;;;;;2.10;67.22;101006.19;5026969;28;20041;-58
2022/04/12 02:35:25;;;;;;;19.45;8.07;;;;;;;2.05;67.74;101005.22;5009128;28;20053;-58
2022/04/12 02:37:51;;;;;;;17.10;7.78;;;;;;;2.07;67.53;101007.84;5022135;28;20037;-59
2022/04/12 02:40:17;;;;;;;12.70;7.15;;;;;;;2.08;67.54;100999.25;5032435;28;20103;-59
2022/04/12 02:42:43;;;;;;;17.98;8.48;;;;;;;2.06;67.74;100999.19;5027346;28;20037;-59
2022/04/12 02:45:09;;;;;;;18.45;8.38;;;;;;;2.12;67.67;100998.47;5031152;28;20034;-59
2022/04/12 02:47:34;;;;;;;14.90;7.22;;;;;;;2.17;67.32;101000.31;5023567;28;20468;-59
2022/04/12 02:50:00;;;;;;;20.40;8.27;;;;;;;2.15;67.76;101001.13;5026135;28;20037;-59
2022/04/12 02:52:25;;;;;;;17.70;8.02;;;;;;;2.17;67.26;101007.22;5031623;28;20047;-59
2022/04/12 02:54:51;;;;;;;17.98;8.93;;;;;;;2.14;67.77;101005.44;5028969;28;20480;-58
2022/04/12 02:57:16;;;;;;;23.70;11.60;;;;;;;2.17;67.62;101005.50;5020201;28;20270;-60
2022/04/12 02:59:42;;;;;;;18.40;9.60;;;;;;;2.24;67.31;101003.06;5026361;28;20043;-59
2022/04/12 03:02:07;;;;;;;19.02;10.25;;;;;;;2.22;67.39;101000.41;5015130;28;20041;-57
2022/04/12 03:04:32;;;;;;;18.13;9.45;;;;;;;2.26;67.09;101004.81;5025140;28;20030;-58
2022/04/12 03:06:58;;;;;;;23.75;11.73;;;;;;;2.24;67.34;101005.66;5030767;28;20038;-58
2022/04/12 03:09:23;;;;;;;25.52;12.00;;;;;;;2.20;67.45;100999.53;5026896;28;20484;-60
2022/04/12 03:11:49;;;;;;;19.20;11.25;;;;;;;2.17;67.45;101008.09;5025965;28;20049;-59
2022/04/12 03:14:14;;;;;;;20.52;10.95;;;;;;;2.11;67.51;101004.47;5027538;28;20038;-59
2022/04/12 03:16:39;;;;;;;20.67;11.07;;;;;;;2.10;67.29;101008.78;5018178;28;20037;-59
2022/04/12 03:19:05;;;;;;;24.15;12.15;;;;;;;2.05;67.54;101015.59;5022578;28;20167;-59
2022/04/12 03:21:30;;;;;;;22.75;12.00;;;;;;;2.08;67.62;101015.69;5029790;28;20045;-59
2022/04/12 03:23:55;;;;;;;23.95;12.77;;;;;;;2.08;67.64;101015.69;5026146;28;20033;-59
2022/04/12 03:26:21;;;;;;;31.83;16.83;;;;;;;2.06;67.42;101014.75;5024355;28;20043;-59
2022/04/12 03:28:47;;;;;;;25.33;14.18;;;;;;;2.02;67.78;101018.13;5023404;28;20049;-59
2022/04/12 03:31:12;;;;;;;27.52;14.73;;;;;;;1.98;67.98;101018.88;5023466;28;20042;-59
2022/04/12 03:33:38;;;;;;;31.38;15.93;;;;;;;1.96;67.81;101020.56;5013399;28;20064;-59
2022/04/12 03:36:03;;;;;;;33.53;16.15;;;;;;;1.94;67.96;101019.66;5016290;28;20053;-59
2022/04/12 03:38:29;;;;;;;33.22;16.48;;;;;;;1.90;68.46;101020.41;5031674;28;20142;-59
2022/04/12 03:40:58;;;;;;;28.30;15.57;;;;;;;1.91;68.26;101024.75;5028652;28;20578;-59
2022/04/12 03:43:23;;;;;;;27.58;15.10;;;;;;;1.83;68.39;101019.38;5026197;28;20038;-59
2022/04/12 03:45:49;;;;;;;27.35;16.52;;;;;;;1.81;68.58;101026.25;5023790;28;20089;-59
2022/04/12 03:48:14;;;;;;;28.75;14.88;;;;;;;1.80;68.94;101016.75;5013940;28;20045;-59
2022/04/12 03:50:40;;;;;;;33.08;17.88;;;;;;;1.78;69.04;101014.94;5025240;28;20033;-59
2022/04/12 03:53:05;;;;;;;30.50;17.45;;;;;;;1.79;68.90;101020.16;5013680;28;20432;-59
2022/04/12 03:55:31;;;;;;;28.73;16.15;;;;;;;1.75;69.16;101023.50;5018869;28;20068;-59
2022/04/12 03:58:07;;;;;;;26.38;15.73;;;;;;;1.72;69.08;101021.75;5014923;28;20037;-59
2022/04/12 04:00:34;;;;;;;26.08;13.88;;;;;;;1.75;69.13;101025.22;5027231;28;20060;-59
2022/04/12 04:03:01;;;;;;;27.77;15.57;;;;;;;1.76;68.92;101037.38;5017912;28;20029;-59
2022/04/12 04:05:27;;;;;;;25.50;14.05;;;;;;;1.72;69.07;101039.00;5029484;28;20030;-59
2022/04/12 04:07:53;;;;;;;25.83;14.60;;;;;;;1.71;69.27;101040.69;5032300;28;20116;-59
2022/04/12 04:10:18;;;;;;;32.80;16.38;;;;;;;1.74;69.15;101039.91;5023004;28;20128;-59
2022/04/12 04:12:44;;;;;;;32.42;17.17;;;;;;;1.77;68.89;101037.41;5019406;28;20367;-59
2022/04/12 04:15:14;;;;;;;34.92;16.17;;;;;;;1.78;68.88;101046.03;5022116;28;20129;-59
2022/04/12 04:17:43;;;;;;;31.55;15.50;;;;;;;1.81;68.88;101051.31;5027563;28;20042;-59
2022/04/12 04:20:10;;;;;;;27.95;13.95;;;;;;;1.88;68.73;101058.41;5025525;28;20034;-59
2022/04/12 04:22:36;;;;;;;25.33;13.88;;;;;;;1.92;68.77;101049.84;5018882;28;20052;-59
2022/04/12 04:25:02;;;;;;;31.83;15.02;;;;;;;1.99;68.52;101051.72;5024130;28;20489;-59
2022/04/12 04:27:29;;;;;;;22.13;12.63;;;;;;;2.06;68.47;101050.16;5019935;28;20117;-59
2022/04/12 04:29:57;;;;;;;26.67;13.70;;;;;;;2.15;67.93;101045.19;5031549;28;20477;-59
2022/04/12 04:32:22;;;;;;;23.02;12.93;;;;;;;2.24;67.80;101049.75;5035988;28;20091;-60
2022/04/12 04:34:48;;;;;;;27.35;13.00;;;;;;;2.30;67.66;101048.13;5031665;28;20413;-59
2022/04/12 04:37:13;;;;;;;21.52;11.95;;;;;;;2.41;67.45;101056.16;5027037;28;20030;-60
2022/04/12 04:39:39;;;;;;;24.02;12.88;;;;;;;2.54;66.94;101059.91;5020721;28;20481;-58
2022/04/12 04:42:05;;;;;;;24.55;12.57;;;;;;;2.62;66.77;101067.00;5035136;28;20037;-58
2022/04/12 04:44:31;;;;;;;24.67;13.05;;;;;;;2.66;66.83;101063.63;5026649;28;20045;-58
2022/04/12 04:46:56;;;;;;;25.17;13.60;;;;;;;2.73;66.36;101059.47;5035258;28;20382;-59
2022/04/12 04:49:22;;;;;;;24.27;12.95;;;;;;;2.82;66.36;101064.81;5026644;28;20505;-58
2022/04/12 04:51:47;;;;;;;20.92;11.25;;;;;;;2.91;65.98;101066.72;5024253;28;20167;-58
2022/04/12 04:54:13;;;;;;;23.42;11.00;;;;;;;3.02;65.94;101065.22;5033495;28;20124;-58
2022/04/12 04:56:38;;;;;;;22.85;11.00;;;;;;;3.07;65.93;101076.63;5025842;28;20040;-58
2022/04/12 04:59:03;;;;;;;19.88;10.68;;;;;;;3.15;65.80;101080.22;5027647;28;20481;-58
2022/04/12 05:01:29;;;;;;;21.15;11.35;;;;;;;3.18;65.46;101080.28;5020672;28;20507;-58
2022/04/12 05:03:54;;;;;;;22.15;11.07;;;;;;;3.21;65.50;101080.34;5032690;28;20040;-58
2022/04/12 05:06:21;;;;;;;19.23;10.35;;;;;;;3.25;65.35;101086.47;5034569;28;20033;-59
2022/04/12 05:08:46;;;;;;;22.73;11.68;;;;;;;3.26;65.47;101092.53;5029140;28;20771;-60
2022/04/12 05:11:12;;;;;;;24.48;11.02;;;;;;;3.13;66.00;101088.81;5030549;28;20037;-60
2022/04/12 05:13:37;;;;;;;24.38;11.43;;;;;;;3.13;65.79;101097.50;5023224;28;20041;-60
2022/04/12 05:16:03;;;;;;;20.73;10.80;;;;;;;3.10;66.08;101102.63;5019694;28;20114;-59
2022/04/12 05:18:28;;;;;;;22.63;12.55;;;;;;;3.19;66.10;101102.81;5025839;28;20045;-59
2022/04/12 05:20:54;;;;;;;22.70;11.55;;;;;;;3.37;66.01;101111.81;5030688;28;20481;-59
2022/04/12 05:23:19;;;;;;;20.25;9.88;;;;;;;3.49;65.36;101126.75;5019523;28;20048;-60
2022/04/12 05:25:44;;;;;;;16.73;8.98;;;;;;;3.72;65.10;101120.25;5017296;28;20470;-60
2022/04/12 05:28:10;;;;;;;19.38;9.63;;;;;;;3.94;64.46;101129.31;5023523;28;20052;-58
2022/04/12 05:30:35;;;;;;;15.95;8.93;;;;;;;4.15;64.05;101132.28;5021827;28;20111;-58
2022/04/12 05:33:01;;;;;;;20.30;8.60;;;;;;;4.29;63.52;101123.81;5016685;28;20113;-58
2022/04/12 05:35:26;;;;;;;16.50;8.20;;;;;;;4.33;63.56;101123.00;5027063;28;20040;-59
2022/04/12 05:37:53;;;;;;;19.90;8.18;;;;;;;4.40;63.16;101132.66;5035349;28;20104;-59
2022/04/12 05:40:20;;;;;;;12.60;8.27;;;;;;;4.50;63.15;101133.66;5027226;28;20061;-58
2022/04/12 05:42:45;;;;;;;13.55;7.72;;;;;;;4.54;63.21;101140.69;5018079;28;20038;-59
2022/04/12 05:45:12;;;;;;;17.92;7.80;;;;;;;4.67;62.99;101143.50;5035321;28;20088;-59
2022/04/12 05:47:46;;;;;;;11.38;6.45;;;;;;;4.76;63.01;101141.88;5052850;28;20036;-59
2022/04/12 05:50:14;;;;;;;10.93;6.45;;;;;;;4.97;62.38;101147.38;5024716;28;20042;-59
2022/04/12 05:52:41;;;;;;;17.88;8.25;;;;;;;5.05;62.40;101150.06;5020224;28;20029;-59
2022/04/12 05:55:12;;;;;;;16.40;7.28;;;;;;;5.14;62.11;101151.06;5021926;28;20052;-59
2022/04/12 05:57:46;;;;;;;14.13;6.95;;;;;;;5.33;61.68;101151.28;5016920;28;20038;-59
2022/04/12 06:00:12;;;;;;;10.30;5.93;;;;;;;5.47;61.40;101157.56;5024596;28;20091;-58
2022/04/12 06:02:38;;;;;;;14.57;6.65;;;;;;;5.61;61.22;101157.69;5018989;28;20041;-58
2022/04/12 06:05:03;;;;;;;12.00;5.68;;;;;;;5.75;60.97;101158.75;5024615;28;20088;-59
2022/04/12 06:07:31;;;;;;;12.77;5.82;;;;;;;5.79;61.12;101159.66;5027195;28;20550;-59
2022/04/12 06:09:57;;;;;;;15.02;5.60;;;;;;;5.81;61.26;101155.31;5023437;28;20045;-59
2022/04/12 06:12:22;;;;;;;13.13;5.43;;;;;;;5.72;61.77;101165.66;5020521;28;20079;-59
2022/04/12 06:14:47;;;;;;;13.50;4.78;;;;;;;5.79;61.90;101173.56;5033133;28;20045;-59
2022/04/12 06:17:13;;;;;;;11.25;5.00;;;;;;;5.90;61.61;101166.72;5025947;28;20037;-59
2022/04/12 06:19:38;;;;;;;13.77;4.80;;;;;;;5.92;61.73;101171.97;5018744;28;20033;-59
2022/04/12 06:22:04;;;;;;;15.35;5.25;;;;;;;5.95;62.29;101176.34;5029657;28;20117;-59
2022/04/12 06:24:29;;;;;;;17.05;5.88;;;;;;;5.85;62.69;101175.34;5035027;28;20037;-59
2022/04/12 06:26:55;;;;;;;15.20;6.75;;;;;;;6.10;61.60;101180.00;5018799;28;20104;-59
2022/04/12 06:29:20;;;;;;;13.75;5.50;;;;;;;6.14;61.79;101180.88;5025592;28;20484;-59
2022/04/12 06:31:45;;;;;;;17.85;6.20;;;;;;;6.25;61.99;101176.63;5047258;28;20116;-59
2022/04/12 06:34:11;;;;;;;12.02;4.82;;;;;;;6.29;61.89;101180.13;5013441;28;20038;-59
2022/04/12 06:36:36;;;;;;;13.90;5.00;;;;;;;6.49;61.23;101185.53;5015024;28;20527;-59
2022/04/12 06:39:02;;;;;;;14.40;4.90;;;;;;;6.57;61.07;101183.84;5022334;28;20045;-58
2022/04/12 06:41:27;;;;;;;14.00;4.20;;;;;;;6.49;61.58;101183.78;5018720;28;20100;-59
2022/04/12 06:43:52;;;;;;;12.98;4.60;;;;;;;6.52;61.52;101188.16;5016713;28;20029;-59
2022/04/12 06:46:18;;;;;;;11.75;4.55;;;;;;;6.61;61.55;101176.03;5020658;28;20042;-59
2022/04/12 06:48:43;;;;;;;9.93;4.05;;;;;;;6.75;60.90;101180.50;5024034;28;20544;-59
2022/04/12 06:51:08;;;;;;;10.55;3.88;;;;;;;6.87;60.36;101185.81;5026343;28;20045;-59
2022/04/12 06:53:34;;;;;;;12.55;4.25;;;;;;;6.92;60.07;101178.88;5021040;28;20029;-60
2022/04/12 06:56:00;;;;;;;11.82;4.65;;;;;;;7.01;59.84;101181.53;5023467;28;20053;-59
2022/04/12 06:58:25;;;;;;;9.85;4.70;;;;;;;7.18;59.24;101186.84;5019888;28;20117;-59
2022/04/12 07:00:51;;;;;;;9.00;3.75;;;;;;;7.22;58.96;101191.25;5015888;28;20041;-60
2022/04/12 07:03:16;;;;;;;8.93;3.85;;;;;;;7.13;59.16;101189.41;5017352;28;20037;-60
2022/04/12 07:05:41;;;;;;;10.15;3.55;;;;;;;7.39;58.34;101192.19;5022108;28;20175;-59
2022/04/12 07:08:07;;;;;;;11.45;3.80;;;;;;;7.62;57.75;101194.00;5017217;28;20046;-59
2022/04/12 07:10:32;;;;;;;11.57;4.35;;;;;;;7.76;57.50;101189.69;5017555;28;20048;-59
2022/04/12 07:12:58;;;;;;;11.90;4.25;;;;;;;7.86;57.42;101183.63;5019220;28;20042;-59
2022/04/12 07:15:23;;;;;;;12.02;3.70;;;;;;;8.01;56.76;101188.00;5022798;28;20037;-59
2022/04/12 07:17:49;;;;;;;6.57;3.42;;;;;;;8.03;56.67;101195.88;5028407;28;20033;-59
2022/04/12 07:20:14;;;;;;;8.45;4.05;;;;;;;8.08;56.13;101195.00;5021246;28;20036;-60
2022/04/12 07:22:40;;;;;;;8.80;3.45;;;;;;;8.14;55.58;101197.63;5016691;28;20140;-60
2022/04/12 07:25:06;;;;;;;8.30;3.78;;;;;;;8.25;55.33;101196.75;5014264;28;20381;-60
2022/04/12 07:27:36;;;;;;;9.45;3.28;;;;;;;8.47;54.86;101198.56;5021405;28;20084;-59
2022/04/12 07:30:04;;;;;;;12.35;3.83;;;;;;;8.72;54.50;101195.91;5024506;28;20110;-59
2022/04/12 07:32:30;;;;;;;7.07;3.05;;;;;;;8.92;53.58;101202.00;5022466;28;20037;-59
2022/04/12 07:34:55;;;;;;;10.68;3.83;;;;;;;8.93;53.25;101203.72;5015110;28;20040;-59
2022/04/12 07:37:21;;;;;;;10.30;3.58;;;;;;;9.10;52.86;101196.72;5027492;28;20109;-59
2022/04/12 07:39:46;;;;;;;7.63;2.70;;;;;;;9.17;51.77;101197.56;5028777;28;20075;-59
2022/04/12 07:42:11;;;;;;;12.60;3.10;;;;;;;9.23;51.92;101201.94;5019189;28;20045;-58
2022/04/12 07:44:37;;;;;;;8.55;2.90;;;;;;;9.29;50.92;101207.13;5023099;28;20034;-59
2022/04/12 07:47:02;;;;;;;4.20;2.20;;;;;;;9.33;50.39;101201.00;5024179;28;20116;-59
2022/04/12 07:49:28;;;;;;;8.43;2.33;;;;;;;9.52;50.16;101193.94;5015401;28;20069;-59
2022/04/12 07:51:53;;;;;;;3.53;1.42;;;;;;;9.47;47.70;101201.84;5020209;28;20452;-59
2022/04/12 07:54:19;;;;;;;5.75;1.63;;;;;;;9.52;46.79;101200.06;5018227;28;20049;-59
2022/04/12 07:56:44;;;;;;;5.72;2.05;;;;;;;9.73;47.30;101192.97;5031152;28;20550;-59
2022/04/12 07:59:10;;;;;;;6.70;2.47;;;;;;;9.87;47.16;101194.63;5024968;28;20539;-59
2022/04/12 08:01:36;;;;;;;6.57;2.13;;;;;;;9.91;46.72;101211.25;5030245;28;20052;-59
2022/04/12 08:04:02;;;;;;;5.78;2.22;;;;;;;9.90;46.40;101206.00;5035820;28;20037;-59
2022/04/12 08:06:27;;;;;;;7.80;2.35;;;;;;;10.09;46.40;101205.91;5030790;28;20030;-59
2022/04/12 08:08:53;;;;;;;8.13;2.55;;;;;;;10.21;46.30;101202.28;5028266;28;20045;-59
2022/04/12 08:11:18;;;;;;;5.28;1.80;;;;;;;10.23;45.57;101204.91;5021380;28;20468;-59
2022/04/12 08:13:45;;;;;;;7.40;1.90;;;;;;;10.22;45.25;101201.44;5027241;28;20029;-58
2022/04/12 08:16:12;;;;;;;6.13;2.00;;;;;;;10.34;45.33;101209.25;5022689;28;20367;-59
2022/04/12 08:18:38;;;;;;;6.13;2.00;;;;;;;10.42;45.04;101211.81;5018441;28;20104;-59
2022/04/12 08:21:03;;;;;;;8.77;2.30;;;;;;;10.26;44.46;101199.69;5029134;28;20041;-58
2022/04/12 08:23:29;;;;;;;4.78;1.90;;;;;;;10.43;44.99;101200.41;5035610;28;20036;-58
2022/04/12 08:25:54;;;;;;;5.75;1.80;;;;;;;10.47;44.62;101203.88;5036750;28;20068;-59
2022/04/12 08:28:20;;;;;;;5.90;2.00;;;;;;;10.49;44.47;101200.38;5034125;28;20484;-58
2022/04/12 08:30:46;;;;;;;9.95;1.75;;;;;;;10.71;44.22;101201.06;5024854;28;20037;-59
2022/04/12 08:33:13;;;;;;;8.82;1.80;;;;;;;10.71;44.34;101194.94;5031282;28;20061;-58
2022/04/12 08:35:38;;;;;;;7.40;2.30;;;;;;;10.67;44.19;101201.09;5026749;28;20044;-59
2022/04/12 08:38:04;;;;;;;6.63;1.95;;;;;;;10.74;44.00;101193.16;5029295;28;20030;-59
2022/04/12 08:40:30;;;;;;;5.22;2.20;;;;;;;10.78;43.92;101200.13;5029775;28;20137;-59
2022/04/12 08:42:58;;;;;;;5.47;1.50;;;;;;;10.79;42.86;101209.72;5027873;28;20112;-59
2022/04/12 08:45:25;;;;;;;5.18;1.92;;;;;;;10.97;43.09;101199.91;5034767;28;20041;-59
2022/04/12 08:47:51;;;;;;;5.20;1.80;;;;;;;11.02;43.21;101204.25;5036443;28;20041;-59
2022/04/12 08:50:19;;;;;;;7.22;1.70;;;;;;;11.01;42.67;101197.25;5031338;28;20243;-59
2022/04/12 08:52:46;;;;;;;4.30;1.85;;;;;;;10.96;43.23;101204.31;5033180;28;20084;-59
2022/04/12 08:55:12;;;;;;;5.65;2.20;;;;;;;10.82;43.31;101208.84;5029983;28;20045;-58
2022/04/12 08:57:37;;;;;;;5.05;1.80;;;;;;;11.05;42.88;101198.97;5026991;28;20025;-58
2022/04/12 09:00:05;;;;;;;4.57;1.52;;;;;;;11.16;42.69;101198.84;5019498;28;20064;-59
2022/04/12 09:02:31;;;;;;;7.22;1.45;;;;;;;11.38;42.19;101201.25;5026767;28;20497;-59
2022/04/12 09:04:57;;;;;;;8.43;1.65;;;;;;;11.33;42.02;101199.53;5036377;28;20538;-59
2022/04/12 09:07:26;;;;;;;6.47;1.90;;;;;;;11.45;41.96;101200.25;5033550;28;20073;-59
2022/04/12 09:09:52;;;;;;;5.60;1.73;;;;;;;11.43;41.40;101205.53;5022013;28;20041;-59
2022/04/12 09:12:18;;;;;;;4.85;1.70;;;;;;;11.50;41.29;101203.72;5023520;28;20473;-59
2022/04/12 09:14:52;;;;;;;6.07;1.80;;;;;;;11.58;41.00;101205.34;5032283;28;20033;-59
2022/04/12 09:17:28;;;;;;;3.45;1.30;;;;;;;11.70;41.08;101204.34;5018776;28;20076;-59
2022/04/12 09:19:55;;;;;;;3.22;1.38;;;;;;;11.78;41.35;101205.09;5018325;28;20038;-59
2022/04/12 09:22:25;;;;;;;7.88;1.70;;;;;;;11.73;40.14;101203.41;5026793;28;20366;-59
2022/04/12 09:24:53;;;;;;;4.28;1.20;;;;;;;11.97;40.72;101199.59;5026240;28;20041;-59
2022/04/12 09:27:21;;;;;;;4.63;1.48;;;;;;;11.88;40.46;101197.97;5028665;28;20108;-58
2022/04/12 09:29:55;;;;;;;4.82;1.40;;;;;;;12.03;40.64;101189.84;5029205;28;20795;-59
2022/04/12 09:32:23;;;;;;;4.60;1.20;;;;;;;12.29;40.41;101197.38;5034470;28;20037;-59
2022/04/12 09:34:50;;;;;;;3.33;1.40;;;;;;;12.44;40.22;101198.88;5025887;28;20036;-58
2022/04/12 09:37:22;;;;;;;4.25;1.30;;;;;;;12.45;38.65;101197.13;5027511;28;20034;-58
2022/04/12 09:40:02;;;;;;;7.05;1.15;;;;;;;12.38;38.68;101192.84;5023519;28;20049;-58
2022/04/12 09:42:43;;;;;;;3.03;1.10;;;;;;;12.50;38.27;101196.16;5023620;28;20072;-58
2022/04/12 09:45:11;;;;;;;3.58;0.90;;;;;;;12.60;39.09;101204.75;5011936;28;20038;-59
2022/04/12 09:47:37;;;;;;;3.67;1.00;;;;;;;12.67;39.03;101194.97;5021400;28;20061;-58
2022/04/12 09:50:03;;;;;;;4.75;1.10;;;;;;;12.71;38.68;101192.25;5021571;28;20061;-58
2022/04/12 09:52:29;;;;;;;5.13;1.58;;;;;;;12.74;38.77;101196.63;5023630;28;20484;-59
2022/04/12 09:54:56;;;;;;;3.00;1.00;;;;;;;12.80;38.21;101199.13;5028872;28;20456;-58
2022/04/12 09:57:22;;;;;;;3.35;1.15;;;;;;;12.66;38.32;101199.41;5030619;28;20057;-58
2022/04/12 09:59:48;;;;;;;5.35;1.10;;;;;;;12.79;38.20;101205.31;5018676;28;20040;-60
2022/04/12 10:02:14;;;;;;;4.60;1.65;;;;;;;12.74;38.41;101196.63;5019057;28;20677;-58
2022/04/12 10:04:42;;;;;;;3.40;1.23;;;;;;;12.98;38.20;101198.81;5017452;28;20491;-58
2022/04/12 10:07:11;;;;;;;6.20;1.50;;;;;;;13.05;38.03;101202.22;5021333;28;20414;-58
2022/04/12 10:09:38;;;;;;;11.77;1.75;;;;;;;13.11;37.41;101198.59;5021178;28;20026;-58
2022/04/12 10:12:08;;;;;;;4.05;1.40;;;;;;;13.25;37.93;101191.31;5022686;28;20041;-58
2022/04/12 10:14:34;;;;;;;5.13;1.35;;;;;;;13.25;37.09;101205.38;5021418;28;20029;-59
2022/04/12 10:17:01;;;;;;;5.78;1.38;;;;;;;13.38;37.16;101208.63;5022225;28;20477;-59
2022/04/12 10:19:26;;;;;;;3.72;0.90;;;;;;;13.35;37.20;101195.50;5022457;28;20034;-59
2022/04/12 10:21:52;;;;;;;5.13;1.05;;;;;;;13.46;37.15;101196.16;5019491;28;20401;-59
2022/04/12 10:24:18;;;;;;;3.50;1.13;;;;;;;13.31;36.95;101199.09;5026377;28;20468;-60
2022/04/12 10:26:46;;;;;;;5.95;1.17;;;;;;;13.33;36.92;101201.72;5025947;28;20022;-58
2022/04/12 10:29:13;;;;;;;3.70;0.85;;;;;;;13.36;36.88;101199.84;5025499;28;20037;-59
2022/04/12 10:32:03;;;;;;;2.17;1.00;;;;;;;13.48;36.30;101198.75;5026290;28;20491;-59
2022/04/12 10:34:29;;;;;;;5.20;1.20;;;;;;;13.60;36.55;101205.53;5029954;28;20048;-58
2022/04/12 10:37:04;;;;;;;3.95;1.10;;;;;;;13.57;35.95;101197.72;5028100;28;20034;-58
2022/04/12 10:39:29;;;;;;;3.70;0.75;;;;;;;13.70;36.45;101209.75;5025788;28;20033;-59
2022/04/12 10:41:56;;;;;;;4.18;1.33;;;;;;;13.71;36.35;101198.25;5019724;28;20037;-58
2022/04/12 10:44:23;;;;;;;4.65;1.20;;;;;;;13.75;36.01;101202.56;5021720;28;20068;-59
2022/04/12 10:46:53;;;;;;;5.18;1.10;;;;;;;13.75;36.13;101197.28;5019361;28;21219;-59
2022/04/12 10:49:22;;;;;;;4.45;1.40;;;;;;;13.72;36.03;101190.34;5026246;28;20493;-58
2022/04/12 10:52:00;;;;;;;4.93;1.20;;;;;;;13.84;35.43;101194.44;5031873;28;20079;-58
2022/04/12 10:54:34;;;;;;;3.47;1.55;;;;;;;14.07;35.15;101187.78;5028448;28;20460;-60
2022/04/12 10:57:18;;;;;;;3.72;0.98;;;;;;;14.30;34.44;101194.25;5022938;28;20033;-59
2022/04/12 10:59:50;;;;;;;2.78;1.20;;;;;;;14.46;34.48;101196.53;5020058;28;20026;-58
2022/04/12 11:02:16;;;;;;;4.43;0.95;;;;;;;14.63;35.01;101181.13;5018140;28;20040;-58
2022/04/12 11:04:42;;;;;;;2.97;1.10;;;;;;;14.60;34.78;101183.88;5020676;28;20038;-59
2022/04/12 11:07:07;;;;;;;3.22;1.30;;;;;;;14.75;34.84;101191.41;5020501;28;20032;-58
2022/04/12 11:09:33;;;;;;;3.13;1.08;;;;;;;14.93;34.67;101183.91;5030183;28;20481;-58
2022/04/12 11:12:01;;;;;;;2.80;1.10;;;;;;;15.07;34.41;101184.38;5022811;28;20595;-59
2022/04/12 11:14:32;;;;;;;2.75;1.05;;;;;;;15.28;33.86;101178.50;5023930;28;20557;-59
2022/04/12 11:17:12;;;;;;;4.38;1.85;;;;;;;15.50;33.18;101183.16;5019625;28;20030;-58
2022/04/12 11:19:46;;;;;;;5.75;1.30;;;;;;;15.35;32.94;101173.88;5024701;28;20026;-58
2022/04/12 11:22:13;;;;;;;5.72;1.40;;;;;;;15.38;33.23;101180.88;5027691;28;20025;-58